createdAt,value
2023-12-02T00:00:47.264Z,9.05
2023-12-02T00:03:14.538Z,9.05
2023-12-02T00:05:42.192Z,9.73
2023-12-02T00:08:09.270Z,8.60
2023-12-02T00:10:38.858Z,8.88
2023-12-02T00:13:06.116Z,8.93
2023-12-02T00:15:33.265Z,8.02
2023-12-02T00:18:00.420Z,9.02
2023-12-02T00:20:27.559Z,8.32
2023-12-02T00:22:54.686Z,8.23
2023-12-02T00:25:22.027Z,7.70
2023-12-02T00:27:49.148Z,6.32
2023-12-02T00:30:16.520Z,6.88
2023-12-02T00:32:43.626Z,7.15
2023-12-02T00:35:10.765Z,6.85
2023-12-02T00:37:37.863Z,5.75
2023-12-02T00:40:05.871Z,6.53
2023-12-02T00:42:33.080Z,6.65
2023-12-02T00:45:00.318Z,5.72
2023-12-02T00:47:27.364Z,5.68
2023-12-02T00:49:54.470Z,5.70
2023-12-02T00:52:21.627Z,5.78
2023-12-02T00:54:48.776Z,6.25
2023-12-02T00:57:16.138Z,5.95
2023-12-02T00:59:43.217Z,6.55
2023-12-02T01:02:11.141Z,6.40
2023-12-02T01:04:38.251Z,6.53
2023-12-02T01:07:05.497Z,6.55
2023-12-02T01:09:32.600Z,6.82
2023-12-02T01:12:00.070Z,6.53
2023-12-02T01:14:27.399Z,6.18
2023-12-02T01:16:54.992Z,6.47
2023-12-02T01:19:22.733Z,9.07
2023-12-02T01:21:49.907Z,7.53
2023-12-02T01:24:18.242Z,7.22
2023-12-02T01:26:45.477Z,5.93
2023-12-02T01:29:12.548Z,6.22
2023-12-02T01:31:40.164Z,5.95
2023-12-02T01:34:07.474Z,6.80
2023-12-02T01:36:34.615Z,6.68
2023-12-02T01:39:02.097Z,6.20
2023-12-02T01:41:32.931Z,6.35
2023-12-02T01:44:00.254Z,7.38
2023-12-02T01:46:28.011Z,6.80
2023-12-02T01:48:55.618Z,8.20
2023-12-02T01:51:22.978Z,6.97
2023-12-02T01:53:50.298Z,6.35
2023-12-02T01:56:18.520Z,6.78
2023-12-02T01:58:48.199Z,8.10
2023-12-02T02:01:15.478Z,7.75
2023-12-02T02:03:42.765Z,6.90
2023-12-02T02:06:10.699Z,7.95
2023-12-02T02:08:38.313Z,7.10
2023-12-02T02:11:05.651Z,7.00
2023-12-02T02:13:32.998Z,7.13
2023-12-02T02:16:00.181Z,7.60
2023-12-02T02:18:33.728Z,7.07
2023-12-02T02:21:04.229Z,7.40
2023-12-02T02:23:31.440Z,6.03
2023-12-02T02:25:58.482Z,6.38
2023-12-02T02:28:27.518Z,6.55
2023-12-02T02:30:55.242Z,6.43
2023-12-02T02:33:22.664Z,7.15
2023-12-02T02:35:49.709Z,6.78
2023-12-02T02:38:17.290Z,7.25
2023-12-02T02:40:45.258Z,7.00
2023-12-02T02:43:12.714Z,7.63
2023-12-02T02:45:39.911Z,7.18
2023-12-02T02:48:07.241Z,7.97
2023-12-02T02:50:34.312Z,8.00
2023-12-02T02:53:01.324Z,7.63
2023-12-02T02:55:28.355Z,6.95
2023-12-02T02:57:55.467Z,7.47
2023-12-02T03:00:24.312Z,7.38
2023-12-02T03:02:51.718Z,7.00
2023-12-02T03:05:18.814Z,6.85
2023-12-02T03:07:46.032Z,8.15
2023-12-02T03:10:13.905Z,8.00
2023-12-02T03:12:40.911Z,7.85
2023-12-02T03:15:08.761Z,6.65
2023-12-02T03:17:35.921Z,7.35
2023-12-02T03:20:03.105Z,6.93
2023-12-02T03:22:30.200Z,6.78
2023-12-02T03:24:57.297Z,7.65
2023-12-02T03:27:24.448Z,6.88
2023-12-02T03:29:51.641Z,7.72
2023-12-02T03:32:18.636Z,7.30
2023-12-02T03:34:45.964Z,7.30
2023-12-02T03:37:13.089Z,6.10
2023-12-02T03:39:40.183Z,6.95
2023-12-02T03:42:07.480Z,6.60
2023-12-02T03:44:34.648Z,7.28
2023-12-02T03:47:01.988Z,6.53
2023-12-02T03:49:29.231Z,7.43
2023-12-02T03:51:56.410Z,7.40
2023-12-02T03:54:23.470Z,7.35
2023-12-02T03:56:50.583Z,6.88
2023-12-02T03:59:17.745Z,7.13
2023-12-02T04:01:44.859Z,7.25
2023-12-02T04:04:11.972Z,7.80
2023-12-02T04:06:39.979Z,7.70
2023-12-02T04:09:07.623Z,7.45
2023-12-02T04:11:34.930Z,6.93
2023-12-02T04:14:02.166Z,6.90
2023-12-02T04:16:29.254Z,7.25
2023-12-02T04:18:59.137Z,7.65
2023-12-02T04:21:28.216Z,7.00
2023-12-02T04:23:55.698Z,7.43
2023-12-02T04:26:26.483Z,7.28
2023-12-02T04:28:53.501Z,9.98
2023-12-02T04:31:21.543Z,7.50
2023-12-02T04:33:48.695Z,7.53
2023-12-02T04:36:15.912Z,7.88
2023-12-02T04:38:43.991Z,7.18
2023-12-02T04:41:11.026Z,7.75
2023-12-02T04:43:38.300Z,8.15
2023-12-02T04:46:08.199Z,8.00
2023-12-02T04:48:35.766Z,8.25
2023-12-02T04:51:03.564Z,8.35
2023-12-02T04:53:30.631Z,8.15
2023-12-02T04:55:57.892Z,8.32
2023-12-02T04:58:25.010Z,7.50
2023-12-02T05:00:52.031Z,8.55
2023-12-02T05:03:19.298Z,7.75
2023-12-02T05:05:47.061Z,8.05
2023-12-02T05:08:14.481Z,7.70
2023-12-02T05:10:41.646Z,7.93
2023-12-02T05:13:08.787Z,7.72
2023-12-02T05:15:35.927Z,6.85
2023-12-02T05:18:04.094Z,7.85
2023-12-02T05:20:31.385Z,8.30
2023-12-02T05:22:58.611Z,8.43
2023-12-02T05:25:25.701Z,8.05
2023-12-02T05:27:53.767Z,9.10
2023-12-02T05:30:21.503Z,8.48
2023-12-02T05:32:49.336Z,8.80
2023-12-02T05:35:16.604Z,7.95
2023-12-02T05:37:43.881Z,8.10
2023-12-02T05:40:11.361Z,8.25
2023-12-02T05:42:38.984Z,7.70
2023-12-02T05:45:07.137Z,8.18
2023-12-02T05:47:34.236Z,8.23
2023-12-02T05:50:01.705Z,9.60
2023-12-02T05:52:28.831Z,9.13
2023-12-02T05:54:56.814Z,9.00
2023-12-02T05:57:24.033Z,8.30
2023-12-02T05:59:51.940Z,9.02
2023-12-02T06:02:19.174Z,8.60
2023-12-02T06:04:46.292Z,7.97
2023-12-02T06:07:13.353Z,8.90
2023-12-02T06:09:44.370Z,8.65
2023-12-02T06:12:11.765Z,8.93
2023-12-02T06:14:39.024Z,8.30
2023-12-02T06:17:06.024Z,8.93
2023-12-02T06:19:33.401Z,8.70
2023-12-02T06:22:00.558Z,8.40
2023-12-02T06:24:27.651Z,9.10
2023-12-02T06:26:54.750Z,8.40
2023-12-02T06:29:21.910Z,8.80
2023-12-02T06:31:51.445Z,8.30
2023-12-02T06:34:19.241Z,9.00
2023-12-02T06:36:46.448Z,9.07
2023-12-02T06:39:16.583Z,8.60
2023-12-02T06:41:44.071Z,8.45
2023-12-02T06:44:11.909Z,9.10
2023-12-02T06:46:39.080Z,9.07
2023-12-02T06:49:06.155Z,8.98
2023-12-02T06:51:33.755Z,8.90
2023-12-02T06:54:01.129Z,9.38
2023-12-02T06:56:28.306Z,9.32
2023-12-02T06:58:55.362Z,8.85
2023-12-02T07:01:31.592Z,8.40
2023-12-02T07:04:00.372Z,8.75
2023-12-02T07:06:30.969Z,9.13
2023-12-02T07:08:58.826Z,8.38
2023-12-02T07:11:25.921Z,8.45
2023-12-02T07:13:53.077Z,8.63
2023-12-02T07:16:20.158Z,8.93
2023-12-02T07:18:49.620Z,8.55
2023-12-02T07:21:16.823Z,8.20
2023-12-02T07:23:45.980Z,8.10
2023-12-02T07:26:13.055Z,8.88
2023-12-02T07:28:40.117Z,8.82
2023-12-02T07:31:12.398Z,8.85
2023-12-02T07:33:39.489Z,9.23
2023-12-02T07:36:06.848Z,8.50
2023-12-02T07:38:34.275Z,8.82
2023-12-02T07:41:01.402Z,9.18
2023-12-02T07:43:28.861Z,8.90
2023-12-02T07:45:56.029Z,9.00
2023-12-02T07:48:23.152Z,8.65
2023-12-02T07:50:50.246Z,8.82
2023-12-02T07:53:17.361Z,9.30
2023-12-02T07:55:47.071Z,9.18
2023-12-02T07:58:14.442Z,9.05
2023-12-02T08:00:41.497Z,8.77
2023-12-02T08:03:09.028Z,8.52
2023-12-02T08:08:06.029Z,8.88
2023-12-02T08:10:33.164Z,8.85
2023-12-02T08:13:00.312Z,8.80
2023-12-02T08:15:27.393Z,9.15
2023-12-02T08:17:54.558Z,8.80
2023-12-02T08:20:21.721Z,9.18
2023-12-02T08:22:49.090Z,9.13
2023-12-02T08:25:16.270Z,9.77
2023-12-02T08:27:43.601Z,9.98
2023-12-02T08:30:11.179Z,11.77
2023-12-02T08:32:38.324Z,9.82
2023-12-02T08:35:06.601Z,10.48
2023-12-02T08:37:33.675Z,9.88
2023-12-02T08:40:03.771Z,9.60
2023-12-02T08:42:30.825Z,10.20
2023-12-02T08:44:58.067Z,9.52
2023-12-02T08:47:25.899Z,10.02
2023-12-02T08:49:53.181Z,10.00
2023-12-02T08:52:20.247Z,10.25
2023-12-02T08:54:47.316Z,10.20
2023-12-02T08:57:14.610Z,10.50
2023-12-02T08:59:41.729Z,9.68
2023-12-02T09:02:10.142Z,10.40
2023-12-02T09:04:37.260Z,18.05
2023-12-02T09:07:05.179Z,26.75
2023-12-02T09:09:32.239Z,14.80
2023-12-02T09:12:00.701Z,11.25
2023-12-02T09:14:27.891Z,14.35
2023-12-02T09:16:54.962Z,10.77
2023-12-02T09:19:53.402Z,10.48
2023-12-02T09:22:44.888Z,10.70
2023-12-02T09:25:30.419Z,10.82
2023-12-02T09:28:02.147Z,10.55
2023-12-02T09:30:29.274Z,10.80
2023-12-02T09:32:56.665Z,10.13
2023-12-02T09:35:23.961Z,10.57
2023-12-02T09:37:51.043Z,10.85
2023-12-02T09:40:22.469Z,9.05
2023-12-02T09:42:57.292Z,10.02
2023-12-02T09:45:30.636Z,10.48
2023-12-02T09:48:21.123Z,10.10
2023-12-02T09:51:13.416Z,9.90
2023-12-02T09:54:21.461Z,11.85
2023-12-02T09:56:57.006Z,11.82
2023-12-02T09:59:41.010Z,10.48
2023-12-02T10:02:29.477Z,9.97
2023-12-02T10:05:05.580Z,10.45
2023-12-02T10:07:41.172Z,10.25
2023-12-02T10:10:11.285Z,10.88
2023-12-02T10:13:01.679Z,10.07
2023-12-02T10:15:34.188Z,9.43
2023-12-02T10:18:13.363Z,9.73
2023-12-02T10:20:42.687Z,9.50
2023-12-02T10:23:13.403Z,9.10
2023-12-02T10:25:46.943Z,9.48
2023-12-02T10:28:33.971Z,9.07
2023-12-02T10:31:05.947Z,9.35
2023-12-02T10:33:45.353Z,9.45
2023-12-02T10:36:14.064Z,9.90
2023-12-02T10:39:11.184Z,11.13
2023-12-02T10:41:48.393Z,10.02
2023-12-02T10:44:17.886Z,10.48
2023-12-02T10:46:47.118Z,10.30
2023-12-02T10:49:14.947Z,10.30
2023-12-02T10:51:44.025Z,9.13
2023-12-02T10:54:16.307Z,10.27
2023-12-02T10:56:47.581Z,10.10
2023-12-02T10:59:16.156Z,10.38
2023-12-02T11:01:52.108Z,10.07
2023-12-02T11:04:23.599Z,10.57
2023-12-02T11:06:54.361Z,9.73
2023-12-02T11:09:43.156Z,9.75
2023-12-02T11:12:13.853Z,9.70
2023-12-02T11:14:43.109Z,8.95
2023-12-02T11:17:19.377Z,9.48
2023-12-02T11:19:56.117Z,8.57
2023-12-02T11:22:40.012Z,8.85
2023-12-02T11:25:34.973Z,8.50
2023-12-02T11:28:08.978Z,9.23
2023-12-02T11:30:36.107Z,9.43
2023-12-02T11:33:29.285Z,11.23
2023-12-02T11:36:33.158Z,12.43
2023-12-02T11:39:15.972Z,11.23
2023-12-02T11:41:53.422Z,11.25
2023-12-02T11:44:48.037Z,9.90
2023-12-02T11:47:36.283Z,11.30
2023-12-02T11:50:14.275Z,9.52
2023-12-02T11:52:42.630Z,10.05
2023-12-02T11:55:23.609Z,9.43
2023-12-02T11:57:52.756Z,9.55
2023-12-02T12:00:38.657Z,10.98
2023-12-02T12:03:27.588Z,8.95
2023-12-02T12:06:03.750Z,8.02
2023-12-02T12:08:38.243Z,7.45
2023-12-02T12:11:08.219Z,8.02
2023-12-02T12:13:36.710Z,7.97
2023-12-02T12:16:04.270Z,9.63
2023-12-02T12:18:31.344Z,8.75
2023-12-02T12:20:58.548Z,9.52
2023-12-02T12:23:26.287Z,9.45
2023-12-02T12:25:53.685Z,10.05
2023-12-02T12:28:20.710Z,9.93
2023-12-02T12:30:49.863Z,10.13
2023-12-02T12:33:19.479Z,10.57
2023-12-02T12:35:48.294Z,12.00
2023-12-02T12:38:16.592Z,14.25
2023-12-02T12:40:46.149Z,13.23
2023-12-02T12:43:14.198Z,12.23
2023-12-02T12:45:41.968Z,11.20
2023-12-02T12:48:10.525Z,10.82
2023-12-02T12:50:39.113Z,11.10
2023-12-02T12:53:12.354Z,11.23
2023-12-02T12:55:46.093Z,10.80
2023-12-02T12:58:16.718Z,9.88
2023-12-02T13:00:47.910Z,11.82
2023-12-02T13:03:36.345Z,11.10
2023-12-02T13:06:04.625Z,10.85
2023-12-02T13:08:36.663Z,20.85
2023-12-02T13:11:18.619Z,16.70
2023-12-02T13:13:56.817Z,15.52
2023-12-02T13:18:52.982Z,14.02
2023-12-02T13:21:21.223Z,12.52
2023-12-02T13:23:51.743Z,12.63
2023-12-02T13:26:29.482Z,12.13
2023-12-02T13:28:57.630Z,11.88
2023-12-02T13:31:26.673Z,11.85
2023-12-02T13:34:02.324Z,12.73
2023-12-02T13:36:37.955Z,12.57
2023-12-02T13:39:11.011Z,12.35
2023-12-02T13:41:48.247Z,11.85
2023-12-02T13:44:22.057Z,13.13
2023-12-02T13:47:17.251Z,9.55
2023-12-02T13:49:46.152Z,12.55
2023-12-02T13:52:34.184Z,13.73
2023-12-02T13:55:20.714Z,13.57
2023-12-02T13:58:05.634Z,11.65
2023-12-02T14:03:10.171Z,17.48
2023-12-02T14:05:59.535Z,18.80
2023-12-02T14:08:33.884Z,14.93
2023-12-02T14:11:03.536Z,13.45
2023-12-02T14:13:32.706Z,14.48
2023-12-02T14:16:00.886Z,16.55
2023-12-02T14:18:47.914Z,17.88
2023-12-02T14:21:34.881Z,17.00
2023-12-02T14:24:22.067Z,17.92
2023-12-02T14:27:10.167Z,16.35
2023-12-02T14:29:58.307Z,16.85
2023-12-02T14:32:33.881Z,15.95
2023-12-02T14:35:22.038Z,14.15
2023-12-02T14:38:19.862Z,15.10
2023-12-02T14:41:26.691Z,14.98
2023-12-02T14:43:53.920Z,14.60
2023-12-02T14:46:22.545Z,18.27
2023-12-02T14:48:49.907Z,25.13
2023-12-02T14:51:18.577Z,27.52
2023-12-02T14:53:46.331Z,22.33
2023-12-02T14:56:29.515Z,20.85
2023-12-02T14:59:00.055Z,19.33
2023-12-02T15:01:38.567Z,21.65
2023-12-02T15:04:08.375Z,22.92
2023-12-02T15:06:37.128Z,24.45
2023-12-02T15:09:07.946Z,21.85
2023-12-02T15:11:37.191Z,18.52
2023-12-02T15:14:05.802Z,18.30
2023-12-02T15:16:33.385Z,19.25
2023-12-02T15:19:10.193Z,18.25
2023-12-02T15:22:16.139Z,18.38
2023-12-02T15:24:43.634Z,14.93
2023-12-02T15:27:11.549Z,20.80
2023-12-02T15:29:38.762Z,18.60
2023-12-02T15:32:06.379Z,18.15
2023-12-02T15:34:33.837Z,18.55
2023-12-02T15:37:01.593Z,18.58
2023-12-02T15:39:29.809Z,19.10
2023-12-02T15:41:57.212Z,18.33
2023-12-02T15:44:24.762Z,18.13
2023-12-02T15:46:51.902Z,18.30
2023-12-02T15:49:24.902Z,17.45
2023-12-02T15:51:53.562Z,16.83
2023-12-02T15:54:24.299Z,20.77
2023-12-02T15:56:53.536Z,18.02
2023-12-02T15:59:24.136Z,15.85
2023-12-02T16:01:53.721Z,14.18
2023-12-02T16:04:21.561Z,12.80
2023-12-02T16:06:49.501Z,9.35
2023-12-02T16:09:24.851Z,8.07
2023-12-02T16:11:53.610Z,10.20
2023-12-02T16:14:21.689Z,9.95
2023-12-02T16:16:56.091Z,9.07
2023-12-02T16:19:24.789Z,10.02
2023-12-02T16:21:53.234Z,8.77
2023-12-02T16:24:20.599Z,9.02
2023-12-02T16:26:48.520Z,10.18
2023-12-02T16:29:16.550Z,8.18
2023-12-02T16:31:45.160Z,7.07
2023-12-02T16:34:13.800Z,7.28
2023-12-02T16:36:43.074Z,7.20
2023-12-02T16:39:13.657Z,7.82
2023-12-02T16:41:43.070Z,7.30
2023-12-02T16:44:10.456Z,8.15
2023-12-02T16:46:42.005Z,8.38
2023-12-02T16:49:17.105Z,8.27
2023-12-02T16:51:45.440Z,8.18
2023-12-02T16:54:13.008Z,9.02
2023-12-02T16:56:41.302Z,8.98
2023-12-02T16:59:19.751Z,14.10
2023-12-02T17:01:46.948Z,8.40
2023-12-02T17:04:14.193Z,7.35
2023-12-02T17:06:42.153Z,6.38
2023-12-02T17:09:28.635Z,6.72
2023-12-02T17:11:55.878Z,7.13
2023-12-02T17:14:29.722Z,7.25
2023-12-02T17:16:58.418Z,5.45
2023-12-02T17:19:29.830Z,7.03
2023-12-02T17:22:00.825Z,7.82
2023-12-02T17:24:38.968Z,8.40
2023-12-02T17:27:09.736Z,7.72
2023-12-02T17:29:41.690Z,9.40
2023-12-02T17:32:09.125Z,9.15
2023-12-02T17:34:38.370Z,9.70
2023-12-02T17:37:07.104Z,10.30
2023-12-02T17:39:34.499Z,9.38
2023-12-02T17:42:01.657Z,9.68
2023-12-02T17:44:28.769Z,9.60
2023-12-02T17:46:56.225Z,10.68
2023-12-02T17:49:23.465Z,9.35
2023-12-02T17:51:50.966Z,11.40
2023-12-02T17:54:18.497Z,9.73
2023-12-02T17:56:46.000Z,10.35
2023-12-02T17:59:13.080Z,11.00
2023-12-02T18:01:40.434Z,10.23
2023-12-02T18:04:07.678Z,10.90
2023-12-02T18:06:36.008Z,10.50
2023-12-02T18:09:03.628Z,10.38
2023-12-02T18:11:30.763Z,10.10
2023-12-02T18:13:58.043Z,9.68
2023-12-02T18:16:25.344Z,9.55
2023-12-02T18:18:54.326Z,9.30
2023-12-02T18:21:23.645Z,9.90
2023-12-02T18:23:57.839Z,10.38
2023-12-02T18:26:24.874Z,10.27
2023-12-02T18:28:51.926Z,10.02
2023-12-02T18:31:18.975Z,10.23
2023-12-02T18:33:46.374Z,9.68
2023-12-02T18:36:13.734Z,10.43
2023-12-02T18:38:40.818Z,11.60
2023-12-02T18:41:09.215Z,10.63
2023-12-02T18:43:39.185Z,11.13
2023-12-02T18:46:06.739Z,11.05
2023-12-02T18:48:33.804Z,9.80
2023-12-02T18:51:01.125Z,9.98
2023-12-02T18:53:28.399Z,10.25
2023-12-02T18:55:55.457Z,10.20
2023-12-02T18:58:22.546Z,9.65
2023-12-02T19:00:49.669Z,10.13
2023-12-02T19:03:17.509Z,13.15
2023-12-02T19:05:44.564Z,12.32
2023-12-02T19:08:11.755Z,10.93
2023-12-02T19:10:40.270Z,12.50
2023-12-02T19:13:07.356Z,12.15
2023-12-02T19:15:34.491Z,11.73
2023-12-02T19:18:02.266Z,12.05
2023-12-02T19:20:29.566Z,11.23
2023-12-02T19:22:56.781Z,10.93
2023-12-02T19:25:23.940Z,11.30
2023-12-02T19:27:51.124Z,10.30
2023-12-02T19:30:18.298Z,10.85
2023-12-02T19:32:45.660Z,11.35
2023-12-02T19:35:16.755Z,12.57
2023-12-02T19:37:44.051Z,11.95
2023-12-02T19:40:11.880Z,11.55
2023-12-02T19:42:42.470Z,11.98
2023-12-02T19:45:10.513Z,13.35
2023-12-02T19:47:37.576Z,11.05
2023-12-02T19:50:04.914Z,11.60
2023-12-02T19:52:32.184Z,12.13
2023-12-02T19:54:59.175Z,13.35
2023-12-02T19:57:26.537Z,13.73
2023-12-02T19:59:54.752Z,14.55
2023-12-02T20:02:21.922Z,13.82
2023-12-02T20:04:49.241Z,13.63
2023-12-02T20:07:16.312Z,13.45
2023-12-02T20:09:43.708Z,13.73
2023-12-02T20:12:11.037Z,15.35
2023-12-02T20:14:38.128Z,15.07
2023-12-02T20:17:06.864Z,16.80
2023-12-02T20:19:33.937Z,15.88
2023-12-02T20:22:01.335Z,16.98
2023-12-02T20:24:28.610Z,17.45
2023-12-02T20:26:55.736Z,17.67
2023-12-02T20:29:24.927Z,15.32
2023-12-02T20:31:52.672Z,16.95
2023-12-02T20:34:19.838Z,15.65
2023-12-02T20:36:47.010Z,15.82
2023-12-02T20:39:14.251Z,16.10
2023-12-02T20:41:42.585Z,19.27
2023-12-02T20:44:09.715Z,18.35
2023-12-02T20:46:37.708Z,17.50
2023-12-02T20:49:04.767Z,18.98
2023-12-02T20:51:32.411Z,17.63
2023-12-02T20:53:59.730Z,19.48
2023-12-02T20:56:27.364Z,19.33
2023-12-02T20:58:54.598Z,20.90
2023-12-02T21:01:21.676Z,18.77
2023-12-02T21:03:48.945Z,19.13
2023-12-02T21:06:16.179Z,19.50
2023-12-02T21:08:44.996Z,18.60
2023-12-02T21:11:12.070Z,20.33
2023-12-02T21:13:39.482Z,21.42
2023-12-02T21:16:07.430Z,19.60
2023-12-02T21:18:35.526Z,20.70
2023-12-02T21:21:02.693Z,20.42
2023-12-02T21:23:29.782Z,20.50
2023-12-02T21:25:57.688Z,19.38
2023-12-02T21:28:24.713Z,19.92
2023-12-02T21:30:52.311Z,20.45
2023-12-02T21:33:20.022Z,19.55
2023-12-02T21:35:54.098Z,19.95
2023-12-02T21:38:34.530Z,21.25
2023-12-02T21:41:05.148Z,20.35
2023-12-02T21:43:32.858Z,21.17
2023-12-02T21:46:00.576Z,22.50
2023-12-02T21:48:49.036Z,21.67
2023-12-02T21:51:25.204Z,21.25
2023-12-02T21:53:54.572Z,24.63
2023-12-02T21:56:21.675Z,22.08
2023-12-02T21:59:06.589Z,25.73
2023-12-02T22:01:37.309Z,23.92
2023-12-02T22:04:13.035Z,22.52
2023-12-02T22:06:42.606Z,26.42
2023-12-02T22:09:10.054Z,26.45
2023-12-02T22:11:42.269Z,29.73
2023-12-02T22:14:19.437Z,30.40
2023-12-02T22:16:51.349Z,27.73
2023-12-02T22:19:18.918Z,27.05
2023-12-02T22:21:46.183Z,30.17
2023-12-02T22:24:13.579Z,29.98
2023-12-02T22:26:40.868Z,31.38
2023-12-02T22:29:11.009Z,30.80
2023-12-02T22:31:41.385Z,31.60
2023-12-02T22:34:15.064Z,30.17
2023-12-02T22:36:44.597Z,23.13
2023-12-02T22:39:32.025Z,30.90
2023-12-02T22:42:04.476Z,31.60
2023-12-02T22:44:35.096Z,30.13
2023-12-02T22:47:02.387Z,29.60
2023-12-02T22:49:33.674Z,28.30
2023-12-02T22:52:01.673Z,29.95
2023-12-02T22:54:44.573Z,27.90
2023-12-02T22:57:13.285Z,28.02
2023-12-02T22:59:41.271Z,28.88
2023-12-02T23:02:12.703Z,28.25
2023-12-02T23:04:43.312Z,28.05
2023-12-02T23:07:18.634Z,28.30
2023-12-02T23:09:51.490Z,29.38
2023-12-02T23:12:22.495Z,26.25
2023-12-02T23:14:59.463Z,28.75
2023-12-02T23:17:28.309Z,29.80
2023-12-02T23:20:01.497Z,27.98
2023-12-02T23:22:29.272Z,28.17
2023-12-02T23:24:56.667Z,28.15
2023-12-02T23:27:44.985Z,27.95
2023-12-02T23:30:17.982Z,26.20
2023-12-02T23:32:45.426Z,28.38
2023-12-02T23:35:20.468Z,26.92
2023-12-02T23:37:49.202Z,24.85
2023-12-02T23:40:24.868Z,26.65
2023-12-02T23:42:52.609Z,26.00
2023-12-02T23:45:19.885Z,27.02
2023-12-02T23:47:47.464Z,28.88
2023-12-02T23:50:14.771Z,27.58
2023-12-02T23:52:41.878Z,26.48
2023-12-02T23:55:09.965Z,26.65
2023-12-02T23:57:38.260Z,25.23
